createdAt,value
2022-12-26T00:01:00.200Z,11.80
2022-12-26T00:03:27.646Z,11.70
2022-12-26T00:05:55.037Z,11.80
2022-12-26T00:08:22.326Z,11.80
2022-12-26T00:10:49.670Z,11.70
2022-12-26T00:13:37.207Z,11.80
2022-12-26T00:16:12.213Z,11.80
2022-12-26T00:18:40.367Z,11.80
2022-12-26T00:21:10.347Z,11.80
2022-12-26T00:23:38.260Z,11.80
2022-12-26T00:26:08.151Z,11.80
2022-12-26T00:28:36.016Z,11.80
2022-12-26T00:31:24.373Z,11.80
2022-12-26T00:33:52.135Z,11.80
2022-12-26T00:36:25.424Z,11.80
2022-12-26T00:38:52.885Z,11.80
2022-12-26T00:41:21.116Z,11.80
2022-12-26T00:43:49.705Z,11.80
2022-12-26T00:46:18.297Z,11.80
2022-12-26T00:48:45.765Z,11.80
2022-12-26T00:51:15.345Z,11.80
2022-12-26T00:53:43.013Z,11.80
2022-12-26T00:56:10.790Z,11.80
2022-12-26T00:58:38.287Z,11.80
2022-12-26T01:01:12.350Z,11.80
2022-12-26T01:03:40.163Z,11.80
2022-12-26T01:06:07.711Z,11.80
2022-12-26T01:08:35.092Z,11.80
2022-12-26T01:11:07.121Z,11.80
2022-12-26T01:13:35.203Z,11.80
2022-12-26T01:16:02.873Z,11.80
2022-12-26T01:18:30.285Z,11.80
2022-12-26T01:21:07.298Z,11.80
2022-12-26T01:23:34.707Z,11.80
2022-12-26T01:26:16.784Z,11.80
2022-12-26T01:28:51.981Z,11.80
2022-12-26T01:31:20.744Z,11.80
2022-12-26T01:33:48.617Z,11.80
2022-12-26T01:36:17.522Z,11.80
2022-12-26T01:38:45.396Z,11.80
2022-12-26T01:41:20.362Z,11.80
2022-12-26T01:43:49.751Z,11.80
2022-12-26T01:46:21.152Z,11.80
2022-12-26T01:48:49.060Z,11.80
2022-12-26T01:51:19.091Z,11.80
2022-12-26T01:53:49.972Z,11.80
2022-12-26T01:56:23.632Z,11.80
2022-12-26T01:58:58.360Z,11.80
2022-12-26T02:01:33.176Z,11.80
2022-12-26T02:04:23.339Z,11.80
2022-12-26T02:06:51.108Z,11.80
2022-12-26T02:09:19.226Z,11.80
2022-12-26T02:12:33.870Z,11.80
2022-12-26T02:14:48.054Z,11.80
2022-12-26T02:17:16.476Z,11.80
2022-12-26T02:19:48.625Z,11.80
2022-12-26T02:22:36.942Z,11.80
2022-12-26T02:25:19.415Z,11.80
2022-12-26T02:28:01.619Z,11.80
2022-12-26T02:30:32.694Z,11.80
2022-12-26T02:33:18.248Z,11.80
2022-12-26T02:36:06.206Z,11.80
2022-12-26T02:38:52.542Z,11.80
2022-12-26T02:41:34.696Z,11.80
2022-12-26T02:44:43.708Z,11.80
2022-12-26T02:47:51.336Z,11.80
2022-12-26T02:51:11.992Z,11.80
2022-12-26T02:54:13.803Z,11.80
2022-12-26T02:57:10.359Z,11.80
2022-12-26T03:00:20.228Z,11.80
2022-12-26T03:03:29.680Z,11.80
2022-12-26T03:06:34.161Z,11.80
2022-12-26T03:09:24.467Z,11.80
2022-12-26T03:12:15.396Z,11.80
2022-12-26T03:14:52.402Z,11.80
2022-12-26T03:17:26.045Z,11.70
2022-12-26T03:19:59.391Z,11.80
2022-12-26T03:22:41.727Z,11.70
2022-12-26T03:25:31.825Z,11.70
2022-12-26T03:27:59.286Z,11.80
2022-12-26T03:30:45.748Z,11.70
2022-12-26T03:33:32.045Z,11.80
2022-12-26T03:36:01.740Z,11.80
2022-12-26T03:38:51.288Z,11.70
2022-12-26T03:41:45.987Z,11.70
2022-12-26T03:44:43.023Z,11.70
2022-12-26T03:47:49.400Z,11.80
2022-12-26T03:51:01.545Z,11.70
2022-12-26T03:53:59.195Z,11.70
2022-12-26T03:56:54.105Z,11.80
2022-12-26T03:59:49.329Z,11.80
2022-12-26T04:02:37.440Z,11.80
2022-12-26T04:05:26.385Z,11.80
2022-12-26T04:08:19.275Z,11.80
2022-12-26T04:11:12.631Z,11.80
2022-12-26T04:14:24.566Z,11.80
2022-12-26T04:17:57.171Z,11.80
2022-12-26T04:20:27.936Z,11.80
2022-12-26T04:23:23.076Z,11.70
2022-12-26T04:26:18.416Z,11.70
2022-12-26T04:29:04.407Z,11.80
2022-12-26T04:32:11.970Z,11.80
2022-12-26T04:35:04.498Z,11.80
2022-12-26T04:37:52.438Z,11.80
2022-12-26T04:40:42.869Z,11.80
2022-12-26T04:43:48.857Z,11.80
2022-12-26T04:46:23.072Z,11.80
2022-12-26T04:49:11.174Z,11.80
2022-12-26T04:51:38.794Z,11.80
2022-12-26T04:54:06.716Z,11.80
2022-12-26T04:56:34.328Z,11.80
2022-12-26T04:59:01.882Z,11.80
2022-12-26T05:01:47.626Z,11.80
2022-12-26T05:04:35.644Z,11.80
2022-12-26T05:07:23.148Z,11.80
2022-12-26T05:09:52.888Z,11.80
2022-12-26T05:12:20.519Z,11.80
2022-12-26T05:14:47.979Z,11.80
2022-12-26T05:17:34.197Z,11.80
2022-12-26T05:20:19.949Z,11.80
2022-12-26T05:23:05.966Z,11.80
2022-12-26T05:25:55.812Z,11.80
2022-12-26T05:28:41.859Z,11.80
2022-12-26T05:31:14.910Z,11.80
2022-12-26T05:34:01.520Z,11.80
2022-12-26T05:36:42.129Z,11.80
2022-12-26T05:39:10.087Z,11.80
2022-12-26T05:41:38.233Z,11.80
2022-12-26T05:44:06.855Z,11.70
2022-12-26T05:46:35.110Z,11.70
2022-12-26T05:49:03.490Z,11.80
2022-12-26T05:51:31.099Z,11.80
2022-12-26T05:53:59.213Z,11.80
2022-12-26T05:56:26.935Z,11.80
2022-12-26T05:59:00.105Z,11.80
2022-12-26T06:01:29.181Z,11.70
2022-12-26T06:03:59.035Z,11.80
2022-12-26T06:06:26.763Z,11.80
2022-12-26T06:08:56.312Z,11.80
2022-12-26T06:11:25.833Z,11.80
2022-12-26T06:13:53.379Z,11.80
2022-12-26T06:16:21.101Z,11.80
2022-12-26T06:18:49.664Z,11.80
2022-12-26T06:21:19.344Z,11.80
2022-12-26T06:23:47.670Z,11.80
2022-12-26T06:26:15.238Z,11.80
2022-12-26T06:28:43.668Z,11.80
2022-12-26T06:31:21.337Z,11.80
2022-12-26T06:33:51.450Z,11.80
2022-12-26T06:36:21.675Z,11.80
2022-12-26T06:38:49.392Z,11.80
2022-12-26T06:41:18.658Z,11.80
2022-12-26T06:43:47.258Z,11.80
2022-12-26T06:46:18.030Z,11.80
2022-12-26T06:48:45.412Z,11.80
2022-12-26T06:51:15.586Z,11.80
2022-12-26T06:53:43.847Z,11.70
2022-12-26T06:56:20.339Z,11.70
2022-12-26T06:58:48.194Z,11.80
2022-12-26T07:01:18.411Z,11.70
2022-12-26T07:03:51.283Z,11.70
2022-12-26T07:06:29.858Z,11.70
2022-12-26T07:09:06.029Z,11.70
2022-12-26T07:11:36.368Z,11.70
2022-12-26T07:14:04.501Z,11.70
2022-12-26T07:16:34.248Z,11.70
2022-12-26T07:19:01.770Z,11.70
2022-12-26T07:21:31.280Z,11.70
2022-12-26T07:24:00.923Z,11.70
2022-12-26T07:26:28.313Z,11.80
2022-12-26T07:28:56.911Z,11.80
2022-12-26T07:31:25.599Z,11.80
2022-12-26T07:33:55.000Z,11.80
2022-12-26T07:36:25.194Z,11.70
2022-12-26T07:38:52.998Z,11.80
2022-12-26T07:41:39.144Z,11.70
2022-12-26T07:44:07.045Z,11.80
2022-12-26T07:46:34.648Z,11.80
2022-12-26T07:49:02.911Z,11.80
2022-12-26T07:51:30.277Z,11.80
2022-12-26T07:53:57.639Z,11.80
2022-12-26T07:56:25.139Z,11.80
2022-12-26T07:58:52.691Z,11.80
2022-12-26T08:01:20.341Z,11.80
2022-12-26T08:03:50.025Z,11.80
2022-12-26T08:06:18.679Z,11.80
2022-12-26T08:08:51.055Z,11.80
2022-12-26T08:11:22.496Z,11.80
2022-12-26T08:13:51.141Z,11.80
2022-12-26T08:16:18.991Z,11.90
2022-12-26T08:18:46.378Z,11.90
2022-12-26T08:21:14.276Z,11.90
2022-12-26T08:23:41.908Z,11.90
2022-12-26T08:26:12.635Z,11.90
2022-12-26T08:28:42.549Z,11.90
2022-12-26T08:31:12.544Z,11.90
2022-12-26T08:33:39.942Z,11.90
2022-12-26T08:36:10.581Z,12.00
2022-12-26T08:38:38.475Z,12.00
2022-12-26T08:41:06.643Z,11.90
2022-12-26T08:44:10.056Z,12.00
2022-12-26T08:46:23.319Z,12.00
2022-12-26T08:48:51.223Z,12.00
2022-12-26T08:51:24.497Z,12.00
2022-12-26T08:53:54.275Z,12.00
2022-12-26T08:56:25.125Z,12.00
2022-12-26T08:58:53.104Z,12.00
2022-12-26T09:01:27.294Z,12.00
2022-12-26T09:03:56.244Z,12.00
2022-12-26T09:06:24.368Z,12.10
2022-12-26T09:08:52.214Z,12.10
2022-12-26T09:11:23.058Z,12.10
2022-12-26T09:13:51.013Z,12.10
2022-12-26T09:16:31.489Z,12.10
2022-12-26T09:19:03.064Z,12.10
2022-12-26T09:21:30.785Z,12.10
2022-12-26T09:24:05.642Z,12.10
2022-12-26T09:26:33.314Z,12.10
2022-12-26T09:29:00.658Z,12.10
2022-12-26T09:31:33.974Z,12.10
2022-12-26T09:34:06.849Z,12.10
2022-12-26T09:36:38.221Z,12.20
2022-12-26T09:39:06.243Z,12.10
2022-12-26T09:41:51.524Z,12.20
2022-12-26T09:44:43.717Z,12.20
2022-12-26T09:47:37.393Z,12.20
2022-12-26T09:50:13.658Z,12.20
2022-12-26T09:52:46.253Z,12.30
2022-12-26T09:55:29.630Z,12.20
2022-12-26T09:58:02.560Z,12.20
2022-12-26T10:00:38.563Z,12.30
2022-12-26T10:03:08.174Z,12.30
2022-12-26T10:05:46.459Z,12.30
2022-12-26T10:08:27.427Z,12.30
2022-12-26T10:10:54.649Z,12.30
2022-12-26T10:13:26.447Z,12.30
2022-12-26T10:16:02.551Z,12.30
2022-12-26T10:19:32.283Z,12.30
2022-12-26T10:22:06.200Z,12.30
2022-12-26T10:24:38.305Z,12.40
2022-12-26T10:27:17.218Z,12.40
2022-12-26T10:30:04.740Z,12.40
2022-12-26T10:32:42.451Z,12.50
2022-12-26T10:35:31.438Z,12.40
2022-12-26T10:38:05.116Z,12.40
2022-12-26T10:40:41.214Z,12.50
2022-12-26T10:43:22.442Z,12.60
2022-12-26T10:46:00.650Z,12.60
2022-12-26T10:48:29.516Z,12.50
2022-12-26T10:50:56.980Z,12.50
2022-12-26T10:53:24.486Z,12.50
2022-12-26T10:55:51.878Z,12.50
2022-12-26T10:58:28.578Z,12.50
2022-12-26T11:00:55.972Z,12.50
2022-12-26T11:03:23.550Z,12.50
2022-12-26T11:06:09.582Z,12.50
2022-12-26T11:08:49.401Z,12.30
2022-12-26T11:11:46.403Z,12.20
2022-12-26T11:14:44.488Z,12.20
2022-12-26T11:17:24.022Z,12.10
2022-12-26T11:20:29.067Z,12.10
2022-12-26T11:23:18.556Z,12.00
2022-12-26T11:25:53.017Z,12.00
2022-12-26T11:28:29.629Z,12.00
2022-12-26T11:30:58.760Z,12.00
2022-12-26T11:33:46.502Z,12.00
2022-12-26T11:36:16.879Z,11.90
2022-12-26T11:38:53.213Z,11.90
2022-12-26T11:41:41.762Z,11.90
2022-12-26T11:44:15.086Z,11.90
2022-12-26T11:46:48.663Z,11.90
2022-12-26T11:49:47.471Z,12.00
2022-12-26T11:52:37.452Z,12.00
2022-12-26T11:55:28.581Z,12.00
2022-12-26T11:58:08.042Z,12.00
2022-12-26T12:00:39.086Z,12.10
2022-12-26T12:03:31.709Z,12.00
2022-12-26T12:06:32.877Z,12.10
2022-12-26T12:09:06.408Z,12.10
2022-12-26T12:11:58.419Z,12.00
2022-12-26T12:14:54.799Z,11.90
2022-12-26T12:17:56.320Z,11.90
2022-12-26T12:20:37.932Z,12.00
2022-12-26T12:23:32.792Z,12.00
2022-12-26T12:26:11.839Z,12.00
2022-12-26T12:29:11.982Z,11.90
2022-12-26T12:31:53.859Z,11.90
2022-12-26T12:34:45.437Z,11.90
2022-12-26T12:37:33.596Z,11.90
2022-12-26T12:40:25.696Z,11.90
2022-12-26T12:42:55.868Z,11.90
2022-12-26T12:45:38.163Z,11.90
2022-12-26T12:48:34.664Z,11.90
2022-12-26T12:51:15.088Z,11.90
2022-12-26T12:54:13.288Z,11.90
2022-12-26T12:57:10.964Z,11.90
2022-12-26T12:59:41.113Z,11.90
2022-12-26T13:02:30.034Z,11.90
2022-12-26T13:05:14.660Z,11.90
2022-12-26T13:07:51.932Z,11.90
2022-12-26T13:10:24.343Z,11.90
2022-12-26T13:12:53.046Z,11.90
2022-12-26T13:15:23.293Z,11.80
2022-12-26T13:18:24.891Z,11.80
2022-12-26T13:21:03.110Z,11.80
2022-12-26T13:24:03.214Z,11.80
2022-12-26T13:26:37.666Z,11.70
2022-12-26T13:29:15.216Z,11.70
2022-12-26T13:31:43.298Z,11.70
2022-12-26T13:34:17.115Z,11.70
2022-12-26T13:36:46.187Z,11.80
2022-12-26T13:39:36.851Z,11.80
2022-12-26T13:42:29.157Z,11.80
2022-12-26T13:45:16.526Z,12.00
2022-12-26T13:47:43.877Z,11.90
2022-12-26T13:50:50.016Z,11.90
2022-12-26T13:53:25.438Z,11.90
2022-12-26T13:56:00.704Z,12.10
2022-12-26T13:58:55.504Z,12.00
2022-12-26T14:01:43.190Z,12.10
2022-12-26T14:04:29.089Z,12.10
2022-12-26T14:07:08.126Z,12.00
2022-12-26T14:09:59.955Z,12.00
2022-12-26T14:12:46.078Z,11.90
2022-12-26T14:15:37.051Z,11.90
2022-12-26T14:18:04.339Z,11.90
2022-12-26T14:20:40.824Z,11.80
2022-12-26T14:23:32.958Z,11.80
2022-12-26T14:26:13.744Z,11.80
2022-12-26T14:29:05.311Z,11.80
2022-12-26T14:32:01.659Z,11.90
2022-12-26T14:34:45.910Z,12.00
2022-12-26T14:37:34.342Z,11.90
2022-12-26T14:40:22.421Z,11.80
2022-12-26T14:43:20.864Z,11.80
2022-12-26T14:45:51.055Z,11.70
2022-12-26T14:48:18.618Z,11.80
2022-12-26T14:50:47.159Z,11.80
2022-12-26T14:53:20.795Z,11.80
2022-12-26T14:55:51.941Z,11.80
2022-12-26T14:58:45.586Z,11.70
2022-12-26T15:01:12.976Z,11.70
2022-12-26T15:03:58.517Z,11.70
2022-12-26T15:06:28.618Z,11.70
2022-12-26T15:09:14.098Z,11.70
2022-12-26T15:12:12.368Z,11.60
2022-12-26T15:15:04.202Z,11.60
2022-12-26T15:17:49.724Z,11.70
2022-12-26T15:20:41.459Z,11.70
2022-12-26T15:23:27.444Z,11.70
2022-12-26T15:26:09.602Z,11.60
2022-12-26T15:29:14.619Z,11.60
2022-12-26T15:32:06.687Z,11.70
2022-12-26T15:34:47.776Z,11.90
2022-12-26T15:37:28.626Z,12.00
2022-12-26T15:40:19.814Z,12.10
2022-12-26T15:42:59.120Z,12.00
2022-12-26T15:45:52.633Z,12.00
2022-12-26T15:48:44.667Z,12.00
2022-12-26T15:51:20.103Z,12.00
2022-12-26T15:54:05.600Z,12.00
2022-12-26T15:56:47.851Z,12.10
2022-12-26T15:59:48.453Z,12.10
2022-12-26T16:02:28.092Z,12.10
2022-12-26T16:05:23.371Z,12.20
2022-12-26T16:08:24.594Z,12.10
2022-12-26T16:11:19.192Z,12.10
2022-12-26T16:13:58.862Z,12.10
2022-12-26T16:16:35.226Z,12.10
2022-12-26T16:19:27.398Z,12.10
2022-12-26T16:22:18.413Z,12.10
2022-12-26T16:24:47.572Z,12.00
2022-12-26T16:27:19.075Z,12.10
2022-12-26T16:30:11.335Z,12.20
2022-12-26T16:32:41.750Z,12.40
2022-12-26T16:35:34.427Z,12.40
2022-12-26T16:38:05.109Z,12.30
2022-12-26T16:40:34.737Z,12.20
2022-12-26T16:43:22.045Z,12.20
2022-12-26T16:45:51.934Z,12.30
2022-12-26T16:48:21.978Z,12.30
2022-12-26T16:51:02.485Z,12.20
2022-12-26T16:53:35.717Z,12.20
2022-12-26T16:56:28.112Z,12.20
2022-12-26T16:59:06.746Z,12.20
2022-12-26T17:01:35.061Z,12.10
2022-12-26T17:04:16.478Z,12.10
2022-12-26T17:06:57.379Z,12.10
2022-12-26T17:09:27.160Z,12.10
2022-12-26T17:12:05.037Z,12.10
2022-12-26T17:14:36.239Z,12.10
2022-12-26T17:17:23.340Z,12.10
2022-12-26T17:19:54.727Z,12.10
2022-12-26T17:22:33.694Z,12.10
2022-12-26T17:25:26.433Z,12.10
2022-12-26T17:28:09.351Z,12.20
2022-12-26T17:30:48.573Z,12.20
2022-12-26T17:33:34.172Z,12.20
2022-12-26T17:39:19.490Z,12.10
2022-12-26T17:41:59.230Z,12.10
2022-12-26T17:44:43.538Z,12.10
2022-12-26T17:47:21.745Z,12.10
2022-12-26T17:49:50.752Z,12.10
2022-12-26T17:52:20.917Z,12.10
2022-12-26T17:54:49.799Z,12.10
2022-12-26T17:57:20.338Z,12.10
2022-12-26T17:59:48.782Z,12.10
2022-12-26T18:02:16.422Z,12.10
2022-12-26T18:04:44.075Z,12.10
2022-12-26T18:07:31.745Z,12.10
2022-12-26T18:10:00.941Z,12.10
2022-12-26T18:12:28.705Z,12.10
2022-12-26T18:15:01.684Z,12.10
2022-12-26T18:17:33.418Z,12.10
2022-12-26T18:20:02.666Z,12.10
2022-12-26T18:22:30.064Z,12.10
2022-12-26T18:24:57.433Z,12.10
2022-12-26T18:27:32.529Z,12.10
2022-12-26T18:30:00.821Z,12.10
2022-12-26T18:32:31.218Z,12.10
2022-12-26T18:34:59.411Z,12.10
2022-12-26T18:37:29.205Z,12.10
2022-12-26T18:39:57.020Z,12.10
2022-12-26T18:42:25.272Z,12.10
2022-12-26T18:44:52.733Z,12.10
2022-12-26T18:47:21.416Z,12.10
2022-12-26T18:49:49.317Z,12.10
2022-12-26T18:52:17.560Z,12.10
2022-12-26T18:54:45.733Z,12.10
2022-12-26T18:57:19.573Z,12.10
2022-12-26T18:59:48.365Z,12.10
2022-12-26T19:02:18.141Z,12.10
2022-12-26T19:04:48.547Z,12.10
2022-12-26T19:07:18.024Z,12.10
2022-12-26T19:09:50.160Z,12.10
2022-12-26T19:12:17.960Z,12.10
2022-12-26T19:14:45.517Z,12.10
2022-12-26T19:17:14.068Z,12.10
2022-12-26T19:19:41.887Z,12.10
2022-12-26T19:22:10.129Z,12.10
2022-12-26T19:24:37.717Z,12.10
2022-12-26T19:27:05.229Z,12.10
2022-12-26T19:29:32.623Z,12.10
2022-12-26T19:32:00.076Z,12.10
2022-12-26T19:34:28.955Z,12.10
2022-12-26T19:36:56.319Z,12.10
2022-12-26T19:39:23.925Z,12.10
2022-12-26T19:41:51.328Z,12.10
2022-12-26T19:44:18.797Z,12.10
2022-12-26T19:46:47.326Z,12.10
2022-12-26T19:49:14.999Z,12.10
2022-12-26T19:51:42.434Z,12.10
2022-12-26T19:54:10.738Z,12.10
2022-12-26T19:56:38.104Z,12.10
2022-12-26T19:59:08.387Z,12.10
2022-12-26T20:01:35.901Z,12.10
2022-12-26T20:04:05.229Z,12.10
2022-12-26T20:06:36.369Z,12.10
2022-12-26T20:09:09.747Z,12.10
2022-12-26T20:11:40.704Z,12.20
2022-12-26T20:14:12.219Z,12.20
2022-12-26T20:17:05.039Z,12.20
2022-12-26T20:19:27.524Z,12.10
2022-12-26T20:21:55.307Z,12.10
2022-12-26T20:24:23.077Z,12.10
2022-12-26T20:26:51.913Z,12.10
2022-12-26T20:29:19.805Z,12.10
2022-12-26T20:31:47.323Z,12.10
2022-12-26T20:34:15.021Z,12.10
2022-12-26T20:36:42.443Z,12.10
2022-12-26T20:39:16.170Z,12.20
2022-12-26T20:41:43.815Z,12.10
2022-12-26T20:44:15.928Z,12.20
2022-12-26T20:46:44.723Z,12.10
2022-12-26T20:49:12.588Z,12.10
2022-12-26T20:51:42.123Z,12.10
2022-12-26T20:54:11.662Z,12.10
2022-12-26T20:56:40.402Z,12.10
2022-12-26T20:59:08.548Z,12.10
2022-12-26T21:01:37.871Z,12.10
2022-12-26T21:04:06.086Z,12.10
2022-12-26T21:06:36.410Z,12.10
2022-12-26T21:09:05.390Z,12.10
2022-12-26T21:11:38.485Z,12.10
2022-12-26T21:14:08.678Z,12.10
2022-12-26T21:16:39.303Z,12.10
2022-12-26T21:19:14.330Z,12.10
2022-12-26T21:21:47.624Z,12.10
2022-12-26T21:24:19.267Z,12.10
2022-12-26T21:26:47.133Z,12.10
2022-12-26T21:29:26.394Z,12.20
2022-12-26T21:31:54.620Z,12.10
2022-12-26T21:34:23.952Z,12.20
2022-12-26T21:37:09.995Z,12.10
2022-12-26T21:39:38.630Z,12.10
2022-12-26T21:42:07.776Z,12.10
2022-12-26T21:44:36.800Z,12.10
2022-12-26T21:47:07.400Z,12.10
2022-12-26T21:49:36.762Z,12.10
2022-12-26T21:52:06.700Z,12.10
2022-12-26T21:54:53.127Z,12.20
2022-12-26T21:57:21.504Z,12.10
2022-12-26T21:59:58.628Z,12.20
2022-12-26T22:02:57.208Z,12.10
2022-12-26T22:05:27.696Z,12.10
2022-12-26T22:07:58.067Z,12.10
2022-12-26T22:10:46.954Z,12.10
2022-12-26T22:13:14.749Z,12.10
2022-12-26T22:16:05.382Z,12.10
2022-12-26T22:18:42.438Z,12.10
2022-12-26T22:21:15.780Z,12.10
2022-12-26T22:23:43.826Z,12.10
2022-12-26T22:26:14.139Z,12.10
2022-12-26T22:28:42.317Z,12.10
2022-12-26T22:31:17.862Z,12.00
2022-12-26T22:33:45.282Z,12.10
2022-12-26T22:36:12.915Z,12.10
2022-12-26T22:38:40.178Z,12.00
2022-12-26T22:41:07.541Z,12.00
2022-12-26T22:43:35.840Z,12.00
2022-12-26T22:46:03.288Z,12.00
2022-12-26T22:48:30.815Z,12.00
2022-12-26T22:50:58.142Z,12.00
2022-12-26T22:53:26.971Z,12.00
2022-12-26T22:56:12.803Z,12.00
2022-12-26T22:58:40.405Z,12.10
2022-12-26T23:01:19.330Z,12.00
2022-12-26T23:03:46.917Z,12.00
2022-12-26T23:06:23.299Z,12.00
2022-12-26T23:08:54.261Z,12.00
2022-12-26T23:11:25.244Z,12.00
2022-12-26T23:13:54.921Z,12.00
2022-12-26T23:16:32.412Z,12.00
2022-12-26T23:19:32.824Z,12.00
2022-12-26T23:22:01.815Z,12.00
2022-12-26T23:24:31.970Z,12.00
2022-12-26T23:27:23.708Z,12.00
2022-12-26T23:30:11.062Z,12.00
2022-12-26T23:32:39.878Z,12.00
2022-12-26T23:35:09.642Z,12.00
2022-12-26T23:37:38.507Z,12.00
2022-12-26T23:40:08.027Z,12.00
2022-12-26T23:42:36.473Z,12.00
2022-12-26T23:45:04.853Z,12.00
2022-12-26T23:47:32.651Z,12.00
2022-12-26T23:50:00.039Z,12.00
2022-12-26T23:52:30.599Z,12.00
2022-12-26T23:54:58.456Z,12.00
2022-12-26T23:57:25.955Z,12.00
2022-12-26T23:59:53.671Z,12.00
